Terminal Aerodrome Forecast
Issued by NWS Portland, OR

Home | Current Version | Previous Version | Text Only | Print | Product List | Glossary On
Versions: 1 2 3 4 5 6 7 8 9 10 11 12 13 14 15 16 17 18 19 20 21 22 23 24 25
000
FTUS46 KPQR 222345
TAFAST
TAF
KAST 222345Z 2300/2324 19010KT P6SM -RA BKN027 OVC060
     FM230100 21015G30KT 3SM RA BR SCT015 BKN025 OVC050
     FM230300 23012KT P6SM -SHRA SCT025 BKN050
     FM231100 20010KT P6SM -SHRA BKN025 OVC040=

USA.gov is the U.S. government's official web portal to all federal, state and local government web resources and services.